sensor_id;sensor_type;location;lat;lon;timestamp;temperature;humidity
26909;DHT22;14477;51.038;4.588;2023-04-24T00:00:16;12.00;99.90
26909;DHT22;14477;51.038;4.588;2023-04-24T00:02:44;12.00;99.90
26909;DHT22;14477;51.038;4.588;2023-04-24T00:05:16;12.00;99.90
26909;DHT22;14477;51.038;4.588;2023-04-24T00:07:44;12.00;99.90
26909;DHT22;14477;51.038;4.588;2023-04-24T00:10:11;12.00;99.90
26909;DHT22;14477;51.038;4.588;2023-04-24T00:12:37;12.00;99.90
26909;DHT22;14477;51.038;4.588;2023-04-24T00:15:04;12.00;99.90
26909;DHT22;14477;51.038;4.588;2023-04-24T00:17:30;12.10;99.90
26909;DHT22;14477;51.038;4.588;2023-04-24T00:19:56;12.10;99.90
26909;DHT22;14477;51.038;4.588;2023-04-24T00:22:27;12.10;99.90
26909;DHT22;14477;51.038;4.588;2023-04-24T00:24:54;12.10;99.90
26909;DHT22;14477;51.038;4.588;2023-04-24T00:27:20;12.10;99.90
26909;DHT22;14477;51.038;4.588;2023-04-24T00:29:46;12.00;99.90
26909;DHT22;14477;51.038;4.588;2023-04-24T00:32:12;12.00;99.90
26909;DHT22;14477;51.038;4.588;2023-04-24T00:34:37;12.10;99.90
26909;DHT22;14477;51.038;4.588;2023-04-24T00:37:03;12.00;99.90
26909;DHT22;14477;51.038;4.588;2023-04-24T00:39:29;12.00;99.90
26909;DHT22;14477;51.038;4.588;2023-04-24T00:41:55;12.00;99.90
26909;DHT22;14477;51.038;4.588;2023-04-24T00:44:22;12.00;99.90
26909;DHT22;14477;51.038;4.588;2023-04-24T00:46:49;12.00;99.90
26909;DHT22;14477;51.038;4.588;2023-04-24T00:49:21;12.00;99.90
26909;DHT22;14477;51.038;4.588;2023-04-24T00:51:47;12.00;99.90
26909;DHT22;14477;51.038;4.588;2023-04-24T00:54:15;12.00;99.90
26909;DHT22;14477;51.038;4.588;2023-04-24T00:56:41;12.00;99.90
26909;DHT22;14477;51.038;4.588;2023-04-24T00:59:08;12.00;99.90
26909;DHT22;14477;51.038;4.588;2023-04-24T01:01:34;12.00;99.90
26909;DHT22;14477;51.038;4.588;2023-04-24T01:04:00;12.00;99.90
26909;DHT22;14477;51.038;4.588;2023-04-24T01:06:28;12.00;99.90
26909;DHT22;14477;51.038;4.588;2023-04-24T01:08:57;12.00;99.90
26909;DHT22;14477;51.038;4.588;2023-04-24T01:11:22;12.00;99.90
26909;DHT22;14477;51.038;4.588;2023-04-24T01:13:48;11.90;99.90
26909;DHT22;14477;51.038;4.588;2023-04-24T01:16:14;12.00;99.90
26909;DHT22;14477;51.038;4.588;2023-04-24T01:18:43;11.90;99.90
26909;DHT22;14477;51.038;4.588;2023-04-24T01:21:09;12.00;99.90
26909;DHT22;14477;51.038;4.588;2023-04-24T01:23:37;11.90;99.90
26909;DHT22;14477;51.038;4.588;2023-04-24T01:26:03;11.90;99.90
26909;DHT22;14477;51.038;4.588;2023-04-24T01:28:30;11.90;99.90
26909;DHT22;14477;51.038;4.588;2023-04-24T01:30:56;11.90;99.90
26909;DHT22;14477;51.038;4.588;2023-04-24T01:33:22;12.00;99.90
26909;DHT22;14477;51.038;4.588;2023-04-24T01:35:48;11.90;99.90
26909;DHT22;14477;51.038;4.588;2023-04-24T01:38:14;11.90;99.90
26909;DHT22;14477;51.038;4.588;2023-04-24T01:40:40;11.90;99.90
26909;DHT22;14477;51.038;4.588;2023-04-24T01:43:06;11.90;99.90
26909;DHT22;14477;51.038;4.588;2023-04-24T01:45:32;11.90;99.90
26909;DHT22;14477;51.038;4.588;2023-04-24T01:47:58;11.90;99.90
26909;DHT22;14477;51.038;4.588;2023-04-24T01:50:25;11.90;99.90
26909;DHT22;14477;51.038;4.588;2023-04-24T01:52:51;11.80;99.90
26909;DHT22;14477;51.038;4.588;2023-04-24T01:55:17;11.80;99.90
26909;DHT22;14477;51.038;4.588;2023-04-24T01:57:43;11.80;99.90
26909;DHT22;14477;51.038;4.588;2023-04-24T02:00:09;11.80;99.90
26909;DHT22;14477;51.038;4.588;2023-04-24T02:02:37;11.80;99.90
26909;DHT22;14477;51.038;4.588;2023-04-24T02:05:06;11.80;99.90
26909;DHT22;14477;51.038;4.588;2023-04-24T02:07:32;11.80;99.90
26909;DHT22;14477;51.038;4.588;2023-04-24T02:09:58;11.80;99.90
26909;DHT22;14477;51.038;4.588;2023-04-24T02:12:24;11.80;99.90
26909;DHT22;14477;51.038;4.588;2023-04-24T02:14:50;11.80;99.90
26909;DHT22;14477;51.038;4.588;2023-04-24T02:17:17;11.80;99.90
26909;DHT22;14477;51.038;4.588;2023-04-24T02:19:45;11.80;99.90
26909;DHT22;14477;51.038;4.588;2023-04-24T02:22:11;11.80;99.90
26909;DHT22;14477;51.038;4.588;2023-04-24T02:24:37;11.70;99.90
26909;DHT22;14477;51.038;4.588;2023-04-24T02:27:03;11.70;99.90
26909;DHT22;14477;51.038;4.588;2023-04-24T02:29:28;11.70;99.90
26909;DHT22;14477;51.038;4.588;2023-04-24T02:31:54;11.60;99.90
26909;DHT22;14477;51.038;4.588;2023-04-24T02:34:20;11.60;99.90
26909;DHT22;14477;51.038;4.588;2023-04-24T02:36:45;11.60;99.90
26909;DHT22;14477;51.038;4.588;2023-04-24T02:39:11;11.60;99.90
26909;DHT22;14477;51.038;4.588;2023-04-24T02:41:37;11.50;99.90
26909;DHT22;14477;51.038;4.588;2023-04-24T02:44:03;11.50;99.90
26909;DHT22;14477;51.038;4.588;2023-04-24T02:46:29;11.40;99.90
26909;DHT22;14477;51.038;4.588;2023-04-24T02:48:55;11.40;99.90
26909;DHT22;14477;51.038;4.588;2023-04-24T02:51:20;11.40;99.90
26909;DHT22;14477;51.038;4.588;2023-04-24T02:53:46;11.30;99.90
26909;DHT22;14477;51.038;4.588;2023-04-24T02:56:12;11.30;99.90
26909;DHT22;14477;51.038;4.588;2023-04-24T02:58:38;11.30;99.90
26909;DHT22;14477;51.038;4.588;2023-04-24T03:01:04;11.30;99.90
26909;DHT22;14477;51.038;4.588;2023-04-24T03:03:30;11.30;99.90
26909;DHT22;14477;51.038;4.588;2023-04-24T03:05:56;11.30;99.90
26909;DHT22;14477;51.038;4.588;2023-04-24T03:08:22;11.20;99.90
26909;DHT22;14477;51.038;4.588;2023-04-24T03:10:48;11.20;99.90
26909;DHT22;14477;51.038;4.588;2023-04-24T03:13:16;11.20;99.90
26909;DHT22;14477;51.038;4.588;2023-04-24T03:15:42;11.20;99.90
26909;DHT22;14477;51.038;4.588;2023-04-24T03:18:07;11.20;99.90
26909;DHT22;14477;51.038;4.588;2023-04-24T03:20:33;11.20;99.90
26909;DHT22;14477;51.038;4.588;2023-04-24T03:22:59;11.20;99.90
26909;DHT22;14477;51.038;4.588;2023-04-24T03:25:25;11.10;99.90
26909;DHT22;14477;51.038;4.588;2023-04-24T03:27:51;11.10;99.90
26909;DHT22;14477;51.038;4.588;2023-04-24T03:30:17;11.10;99.90
26909;DHT22;14477;51.038;4.588;2023-04-24T03:32:43;11.10;99.90
26909;DHT22;14477;51.038;4.588;2023-04-24T03:35:09;11.10;99.90
26909;DHT22;14477;51.038;4.588;2023-04-24T03:37:36;11.10;99.90
26909;DHT22;14477;51.038;4.588;2023-04-24T03:40:02;11.10;99.90
26909;DHT22;14477;51.038;4.588;2023-04-24T03:42:28;11.00;99.90
26909;DHT22;14477;51.038;4.588;2023-04-24T03:44:53;11.00;99.90
26909;DHT22;14477;51.038;4.588;2023-04-24T03:47:19;11.00;99.90
26909;DHT22;14477;51.038;4.588;2023-04-24T03:49:45;11.00;99.90
26909;DHT22;14477;51.038;4.588;2023-04-24T03:52:10;11.00;99.90
26909;DHT22;14477;51.038;4.588;2023-04-24T03:54:36;11.00;99.90
26909;DHT22;14477;51.038;4.588;2023-04-24T03:57:02;11.00;99.90
26909;DHT22;14477;51.038;4.588;2023-04-24T03:59:30;11.00;99.90
26909;DHT22;14477;51.038;4.588;2023-04-24T04:01:56;11.10;99.90
26909;DHT22;14477;51.038;4.588;2023-04-24T04:04:22;11.10;99.90
26909;DHT22;14477;51.038;4.588;2023-04-24T04:06:47;11.10;99.90
26909;DHT22;14477;51.038;4.588;2023-04-24T04:09:14;11.10;99.90
26909;DHT22;14477;51.038;4.588;2023-04-24T04:11:41;11.10;99.90
26909;DHT22;14477;51.038;4.588;2023-04-24T04:14:07;11.10;99.90
26909;DHT22;14477;51.038;4.588;2023-04-24T04:16:32;11.10;99.90
26909;DHT22;14477;51.038;4.588;2023-04-24T04:18:58;11.10;99.90
26909;DHT22;14477;51.038;4.588;2023-04-24T04:21:24;11.10;99.90
26909;DHT22;14477;51.038;4.588;2023-04-24T04:23:50;11.10;99.90
26909;DHT22;14477;51.038;4.588;2023-04-24T04:26:16;11.20;99.90
26909;DHT22;14477;51.038;4.588;2023-04-24T04:28:44;11.10;99.90
26909;DHT22;14477;51.038;4.588;2023-04-24T04:31:10;11.10;99.90
26909;DHT22;14477;51.038;4.588;2023-04-24T04:33:36;11.10;99.90
26909;DHT22;14477;51.038;4.588;2023-04-24T04:36:03;11.10;99.90
26909;DHT22;14477;51.038;4.588;2023-04-24T04:38:29;11.10;99.90
26909;DHT22;14477;51.038;4.588;2023-04-24T04:40:55;11.10;99.90
26909;DHT22;14477;51.038;4.588;2023-04-24T04:43:26;11.10;99.90
26909;DHT22;14477;51.038;4.588;2023-04-24T04:45:54;11.10;99.90
26909;DHT22;14477;51.038;4.588;2023-04-24T04:48:21;11.10;99.90
26909;DHT22;14477;51.038;4.588;2023-04-24T04:50:47;11.00;99.90
26909;DHT22;14477;51.038;4.588;2023-04-24T04:53:13;11.00;99.90
26909;DHT22;14477;51.038;4.588;2023-04-24T04:55:39;11.00;99.90
26909;DHT22;14477;51.038;4.588;2023-04-24T04:58:05;11.00;99.90
26909;DHT22;14477;51.038;4.588;2023-04-24T05:00:31;11.10;99.90
26909;DHT22;14477;51.038;4.588;2023-04-24T05:03:01;11.00;99.90
26909;DHT22;14477;51.038;4.588;2023-04-24T05:05:27;11.00;99.90
26909;DHT22;14477;51.038;4.588;2023-04-24T05:07:52;11.00;99.90
26909;DHT22;14477;51.038;4.588;2023-04-24T05:10:18;11.00;99.90
26909;DHT22;14477;51.038;4.588;2023-04-24T05:12:44;11.00;99.90
26909;DHT22;14477;51.038;4.588;2023-04-24T05:15:10;11.00;99.90
26909;DHT22;14477;51.038;4.588;2023-04-24T05:17:36;11.00;99.90
26909;DHT22;14477;51.038;4.588;2023-04-24T05:20:03;11.00;99.90
26909;DHT22;14477;51.038;4.588;2023-04-24T05:22:32;11.00;99.90
26909;DHT22;14477;51.038;4.588;2023-04-24T05:24:59;11.00;99.90
26909;DHT22;14477;51.038;4.588;2023-04-24T05:27:25;11.00;99.90
26909;DHT22;14477;51.038;4.588;2023-04-24T05:29:51;10.90;99.90
26909;DHT22;14477;51.038;4.588;2023-04-24T05:32:17;10.90;99.90
26909;DHT22;14477;51.038;4.588;2023-04-24T05:34:42;10.90;99.90
26909;DHT22;14477;51.038;4.588;2023-04-24T05:37:08;10.90;99.90
26909;DHT22;14477;51.038;4.588;2023-04-24T05:39:35;10.90;99.90
26909;DHT22;14477;51.038;4.588;2023-04-24T05:42:02;10.90;99.90
26909;DHT22;14477;51.038;4.588;2023-04-24T05:44:28;10.90;99.90
26909;DHT22;14477;51.038;4.588;2023-04-24T05:46:54;10.90;99.90
26909;DHT22;14477;51.038;4.588;2023-04-24T05:49:21;10.90;99.90
26909;DHT22;14477;51.038;4.588;2023-04-24T05:51:47;11.00;99.90
26909;DHT22;14477;51.038;4.588;2023-04-24T05:54:13;10.90;99.90
26909;DHT22;14477;51.038;4.588;2023-04-24T05:56:39;10.90;99.90
26909;DHT22;14477;51.038;4.588;2023-04-24T05:59:05;10.90;99.90
26909;DHT22;14477;51.038;4.588;2023-04-24T06:01:31;10.90;99.90
26909;DHT22;14477;51.038;4.588;2023-04-24T06:03:58;10.90;99.90
26909;DHT22;14477;51.038;4.588;2023-04-24T06:06:24;10.90;99.90
26909;DHT22;14477;51.038;4.588;2023-04-24T06:08:50;10.90;99.90
26909;DHT22;14477;51.038;4.588;2023-04-24T06:11:15;10.90;99.90
26909;DHT22;14477;51.038;4.588;2023-04-24T06:13:41;10.90;99.90
26909;DHT22;14477;51.038;4.588;2023-04-24T06:16:07;10.90;99.90
26909;DHT22;14477;51.038;4.588;2023-04-24T06:18:33;10.90;99.90
26909;DHT22;14477;51.038;4.588;2023-04-24T06:20:59;11.00;99.90
26909;DHT22;14477;51.038;4.588;2023-04-24T06:23:24;11.00;99.90
26909;DHT22;14477;51.038;4.588;2023-04-24T06:25:51;10.90;99.90
26909;DHT22;14477;51.038;4.588;2023-04-24T06:28:16;10.90;99.90
26909;DHT22;14477;51.038;4.588;2023-04-24T06:30:42;10.90;99.90
26909;DHT22;14477;51.038;4.588;2023-04-24T06:33:08;10.90;99.90
26909;DHT22;14477;51.038;4.588;2023-04-24T06:35:35;10.90;99.90
26909;DHT22;14477;51.038;4.588;2023-04-24T06:38:01;10.90;99.90
26909;DHT22;14477;51.038;4.588;2023-04-24T06:40:26;10.90;99.90
26909;DHT22;14477;51.038;4.588;2023-04-24T06:42:52;10.90;99.90
26909;DHT22;14477;51.038;4.588;2023-04-24T06:45:18;10.90;99.90
26909;DHT22;14477;51.038;4.588;2023-04-24T06:47:44;11.00;99.90
26909;DHT22;14477;51.038;4.588;2023-04-24T06:50:10;11.00;99.90
26909;DHT22;14477;51.038;4.588;2023-04-24T06:52:36;11.00;99.90
26909;DHT22;14477;51.038;4.588;2023-04-24T06:55:03;11.00;99.90
26909;DHT22;14477;51.038;4.588;2023-04-24T06:57:29;11.00;99.90
26909;DHT22;14477;51.038;4.588;2023-04-24T06:59:55;11.00;99.90
26909;DHT22;14477;51.038;4.588;2023-04-24T07:02:21;11.00;99.90
26909;DHT22;14477;51.038;4.588;2023-04-24T07:04:47;11.00;99.90
26909;DHT22;14477;51.038;4.588;2023-04-24T07:07:15;11.00;99.90
26909;DHT22;14477;51.038;4.588;2023-04-24T07:09:42;11.00;99.90
26909;DHT22;14477;51.038;4.588;2023-04-24T07:12:11;11.10;99.90
26909;DHT22;14477;51.038;4.588;2023-04-24T07:14:38;11.10;99.90
26909;DHT22;14477;51.038;4.588;2023-04-24T07:17:04;11.00;99.90
26909;DHT22;14477;51.038;4.588;2023-04-24T07:19:31;11.10;99.90
26909;DHT22;14477;51.038;4.588;2023-04-24T07:21:56;11.10;99.90
26909;DHT22;14477;51.038;4.588;2023-04-24T07:24:24;11.10;99.90
26909;DHT22;14477;51.038;4.588;2023-04-24T07:26:51;11.10;99.90
26909;DHT22;14477;51.038;4.588;2023-04-24T07:29:17;11.10;99.90
26909;DHT22;14477;51.038;4.588;2023-04-24T07:31:43;11.20;99.90
26909;DHT22;14477;51.038;4.588;2023-04-24T07:34:09;11.20;99.90
26909;DHT22;14477;51.038;4.588;2023-04-24T07:36:35;11.30;99.90
26909;DHT22;14477;51.038;4.588;2023-04-24T07:39:01;11.30;99.90
26909;DHT22;14477;51.038;4.588;2023-04-24T07:41:27;11.40;99.90
26909;DHT22;14477;51.038;4.588;2023-04-24T07:43:53;11.60;99.90
26909;DHT22;14477;51.038;4.588;2023-04-24T07:46:20;11.60;99.90
26909;DHT22;14477;51.038;4.588;2023-04-24T07:48:46;11.60;99.90
26909;DHT22;14477;51.038;4.588;2023-04-24T07:51:14;11.70;99.90
26909;DHT22;14477;51.038;4.588;2023-04-24T07:53:42;11.70;99.90
26909;DHT22;14477;51.038;4.588;2023-04-24T07:56:08;11.70;99.90
26909;DHT22;14477;51.038;4.588;2023-04-24T07:58:34;11.80;99.90
26909;DHT22;14477;51.038;4.588;2023-04-24T08:01:00;11.80;99.90
26909;DHT22;14477;51.038;4.588;2023-04-24T08:03:26;11.80;99.90
26909;DHT22;14477;51.038;4.588;2023-04-24T08:05:52;11.90;99.90
26909;DHT22;14477;51.038;4.588;2023-04-24T08:08:21;11.90;99.90
26909;DHT22;14477;51.038;4.588;2023-04-24T08:10:47;11.90;99.90
26909;DHT22;14477;51.038;4.588;2023-04-24T08:13:12;11.90;99.90
26909;DHT22;14477;51.038;4.588;2023-04-24T08:15:38;12.00;99.90
26909;DHT22;14477;51.038;4.588;2023-04-24T08:18:04;12.00;99.90
26909;DHT22;14477;51.038;4.588;2023-04-24T08:20:30;12.00;99.90
26909;DHT22;14477;51.038;4.588;2023-04-24T08:22:56;12.10;99.90
26909;DHT22;14477;51.038;4.588;2023-04-24T08:25:22;12.10;99.90
26909;DHT22;14477;51.038;4.588;2023-04-24T08:27:49;12.20;99.90
26909;DHT22;14477;51.038;4.588;2023-04-24T08:30:14;12.30;99.90
26909;DHT22;14477;51.038;4.588;2023-04-24T08:32:40;12.40;99.90
26909;DHT22;14477;51.038;4.588;2023-04-24T08:35:07;12.50;99.90
26909;DHT22;14477;51.038;4.588;2023-04-24T08:37:35;12.70;99.90
26909;DHT22;14477;51.038;4.588;2023-04-24T08:40:03;12.90;99.90
26909;DHT22;14477;51.038;4.588;2023-04-24T08:42:32;13.10;99.90
26909;DHT22;14477;51.038;4.588;2023-04-24T08:44:59;13.20;99.90
26909;DHT22;14477;51.038;4.588;2023-04-24T08:47:25;13.40;99.90
26909;DHT22;14477;51.038;4.588;2023-04-24T08:49:52;13.70;99.90
26909;DHT22;14477;51.038;4.588;2023-04-24T08:52:20;14.00;99.90
26909;DHT22;14477;51.038;4.588;2023-04-24T08:54:48;14.40;99.90
26909;DHT22;14477;51.038;4.588;2023-04-24T08:57:14;14.70;99.90
26909;DHT22;14477;51.038;4.588;2023-04-24T08:59:40;14.90;99.90
26909;DHT22;14477;51.038;4.588;2023-04-24T09:02:10;15.00;99.90
26909;DHT22;14477;51.038;4.588;2023-04-24T09:04:37;14.90;99.90
26909;DHT22;14477;51.038;4.588;2023-04-24T09:07:04;14.90;99.90
26909;DHT22;14477;51.038;4.588;2023-04-24T09:09:32;14.70;99.90
26909;DHT22;14477;51.038;4.588;2023-04-24T09:11:58;14.60;99.90
26909;DHT22;14477;51.038;4.588;2023-04-24T09:14:24;14.40;99.90
26909;DHT22;14477;51.038;4.588;2023-04-24T09:16:50;14.30;99.90
26909;DHT22;14477;51.038;4.588;2023-04-24T09:19:17;14.30;99.90
26909;DHT22;14477;51.038;4.588;2023-04-24T09:21:46;14.30;99.90
26909;DHT22;14477;51.038;4.588;2023-04-24T09:24:17;14.40;99.90
26909;DHT22;14477;51.038;4.588;2023-04-24T09:26:43;14.40;99.90
26909;DHT22;14477;51.038;4.588;2023-04-24T09:29:15;14.30;99.90
26909;DHT22;14477;51.038;4.588;2023-04-24T09:31:42;14.30;99.90
26909;DHT22;14477;51.038;4.588;2023-04-24T09:34:08;14.40;99.90
26909;DHT22;14477;51.038;4.588;2023-04-24T09:39:10;14.60;99.90
26909;DHT22;14477;51.038;4.588;2023-04-24T09:41:55;14.80;99.90
26909;DHT22;14477;51.038;4.588;2023-04-24T09:44:27;15.20;99.90
26909;DHT22;14477;51.038;4.588;2023-04-24T09:46:59;15.50;99.90
26909;DHT22;14477;51.038;4.588;2023-04-24T09:49:29;15.70;99.90
26909;DHT22;14477;51.038;4.588;2023-04-24T09:52:09;15.80;99.90
26909;DHT22;14477;51.038;4.588;2023-04-24T09:54:35;15.80;99.90
26909;DHT22;14477;51.038;4.588;2023-04-24T09:57:02;15.70;99.90
26909;DHT22;14477;51.038;4.588;2023-04-24T09:59:29;15.60;99.90
26909;DHT22;14477;51.038;4.588;2023-04-24T10:01:55;15.50;99.90
26909;DHT22;14477;51.038;4.588;2023-04-24T10:04:26;15.60;99.90
26909;DHT22;14477;51.038;4.588;2023-04-24T10:06:54;15.60;99.90
26909;DHT22;14477;51.038;4.588;2023-04-24T10:09:22;15.80;99.90
26909;DHT22;14477;51.038;4.588;2023-04-24T10:11:50;15.70;99.90
26909;DHT22;14477;51.038;4.588;2023-04-24T10:14:21;15.70;99.90
26909;DHT22;14477;51.038;4.588;2023-04-24T10:16:48;15.70;99.90
26909;DHT22;14477;51.038;4.588;2023-04-24T10:19:15;15.50;99.90
26909;DHT22;14477;51.038;4.588;2023-04-24T10:21:43;15.40;99.90
26909;DHT22;14477;51.038;4.588;2023-04-24T10:24:16;15.30;99.90
26909;DHT22;14477;51.038;4.588;2023-04-24T10:26:43;15.20;99.90
26909;DHT22;14477;51.038;4.588;2023-04-24T10:29:11;15.10;99.90
26909;DHT22;14477;51.038;4.588;2023-04-24T10:31:39;15.10;99.90
26909;DHT22;14477;51.038;4.588;2023-04-24T10:34:06;15.10;99.90
26909;DHT22;14477;51.038;4.588;2023-04-24T10:36:34;15.00;99.90
26909;DHT22;14477;51.038;4.588;2023-04-24T10:39:02;15.00;99.90
26909;DHT22;14477;51.038;4.588;2023-04-24T10:41:30;15.00;99.90
26909;DHT22;14477;51.038;4.588;2023-04-24T10:44:09;14.90;99.90
26909;DHT22;14477;51.038;4.588;2023-04-24T10:46:38;14.90;99.90
26909;DHT22;14477;51.038;4.588;2023-04-24T10:49:06;14.80;99.90
26909;DHT22;14477;51.038;4.588;2023-04-24T10:51:52;14.80;99.90
26909;DHT22;14477;51.038;4.588;2023-04-24T10:54:33;14.80;99.90
26909;DHT22;14477;51.038;4.588;2023-04-24T10:59:44;15.00;99.90
26909;DHT22;14477;51.038;4.588;2023-04-24T11:02:10;15.10;99.90
26909;DHT22;14477;51.038;4.588;2023-04-24T11:04:36;15.20;99.90
26909;DHT22;14477;51.038;4.588;2023-04-24T11:07:05;15.30;99.90
26909;DHT22;14477;51.038;4.588;2023-04-24T11:09:31;15.40;99.90
26909;DHT22;14477;51.038;4.588;2023-04-24T11:12:08;15.50;99.90
26909;DHT22;14477;51.038;4.588;2023-04-24T11:14:59;15.70;99.90
26909;DHT22;14477;51.038;4.588;2023-04-24T11:20:16;16.30;99.90
26909;DHT22;14477;51.038;4.588;2023-04-24T11:22:42;16.50;99.90
26909;DHT22;14477;51.038;4.588;2023-04-24T11:25:09;16.60;99.90
26909;DHT22;14477;51.038;4.588;2023-04-24T11:27:44;16.60;99.90
26909;DHT22;14477;51.038;4.588;2023-04-24T11:30:11;16.60;99.90
26909;DHT22;14477;51.038;4.588;2023-04-24T11:32:40;16.50;99.90
26909;DHT22;14477;51.038;4.588;2023-04-24T11:35:19;16.50;99.90
26909;DHT22;14477;51.038;4.588;2023-04-24T11:37:48;16.40;99.90
26909;DHT22;14477;51.038;4.588;2023-04-24T11:40:16;16.40;99.90
26909;DHT22;14477;51.038;4.588;2023-04-24T11:42:44;16.50;99.90
26909;DHT22;14477;51.038;4.588;2023-04-24T11:45:24;16.60;99.90
26909;DHT22;14477;51.038;4.588;2023-04-24T11:47:50;16.80;99.90
26909;DHT22;14477;51.038;4.588;2023-04-24T11:50:17;16.90;99.90
26909;DHT22;14477;51.038;4.588;2023-04-24T11:52:44;17.00;99.90
26909;DHT22;14477;51.038;4.588;2023-04-24T11:57:46;17.10;99.90
26909;DHT22;14477;51.038;4.588;2023-04-24T12:00:19;17.10;99.90
26909;DHT22;14477;51.038;4.588;2023-04-24T12:02:46;17.20;99.90
26909;DHT22;14477;51.038;4.588;2023-04-24T12:05:26;17.30;99.90
26909;DHT22;14477;51.038;4.588;2023-04-24T12:07:53;17.50;99.90
26909;DHT22;14477;51.038;4.588;2023-04-24T12:10:26;17.60;99.90
26909;DHT22;14477;51.038;4.588;2023-04-24T12:12:53;17.80;99.90
26909;DHT22;14477;51.038;4.588;2023-04-24T12:15:19;17.90;99.90
26909;DHT22;14477;51.038;4.588;2023-04-24T12:17:46;17.90;99.90
26909;DHT22;14477;51.038;4.588;2023-04-24T12:20:13;18.00;99.90
26909;DHT22;14477;51.038;4.588;2023-04-24T12:22:54;18.00;99.90
26909;DHT22;14477;51.038;4.588;2023-04-24T12:25:22;18.10;99.90
26909;DHT22;14477;51.038;4.588;2023-04-24T12:28:08;18.10;99.90
26909;DHT22;14477;51.038;4.588;2023-04-24T12:30:44;18.10;99.90
26909;DHT22;14477;51.038;4.588;2023-04-24T12:33:17;18.10;99.90
26909;DHT22;14477;51.038;4.588;2023-04-24T12:35:44;18.10;99.90
26909;DHT22;14477;51.038;4.588;2023-04-24T12:38:13;18.10;99.90
26909;DHT22;14477;51.038;4.588;2023-04-24T12:40:40;18.00;99.90
26909;DHT22;14477;51.038;4.588;2023-04-24T12:43:18;18.00;99.90
26909;DHT22;14477;51.038;4.588;2023-04-24T12:45:44;18.00;99.90
26909;DHT22;14477;51.038;4.588;2023-04-24T12:48:10;18.00;99.90
26909;DHT22;14477;51.038;4.588;2023-04-24T12:50:37;18.10;99.90
26909;DHT22;14477;51.038;4.588;2023-04-24T12:53:07;18.30;99.90
26909;DHT22;14477;51.038;4.588;2023-04-24T12:55:34;18.60;99.90
26909;DHT22;14477;51.038;4.588;2023-04-24T12:57:59;18.80;99.90
26909;DHT22;14477;51.038;4.588;2023-04-24T13:00:26;18.90;99.90
26909;DHT22;14477;51.038;4.588;2023-04-24T13:02:51;19.00;99.90
26909;DHT22;14477;51.038;4.588;2023-04-24T13:05:17;19.00;99.90
26909;DHT22;14477;51.038;4.588;2023-04-24T13:07:43;19.00;99.90
26909;DHT22;14477;51.038;4.588;2023-04-24T13:10:09;19.10;99.90
26909;DHT22;14477;51.038;4.588;2023-04-24T13:12:36;19.20;99.90
26909;DHT22;14477;51.038;4.588;2023-04-24T13:15:02;19.40;99.90
26909;DHT22;14477;51.038;4.588;2023-04-24T13:17:30;19.60;99.90
26909;DHT22;14477;51.038;4.588;2023-04-24T13:19:56;19.90;99.90
26909;DHT22;14477;51.038;4.588;2023-04-24T13:22:22;20.20;99.90
26909;DHT22;14477;51.038;4.588;2023-04-24T13:24:47;20.50;99.90
26909;DHT22;14477;51.038;4.588;2023-04-24T13:27:16;20.60;99.90
26909;DHT22;14477;51.038;4.588;2023-04-24T13:29:42;20.70;99.90
26909;DHT22;14477;51.038;4.588;2023-04-24T13:32:08;20.90;99.90
26909;DHT22;14477;51.038;4.588;2023-04-24T13:34:34;21.10;99.90
26909;DHT22;14477;51.038;4.588;2023-04-24T13:37:01;21.10;99.90
26909;DHT22;14477;51.038;4.588;2023-04-24T13:39:27;21.10;99.90
26909;DHT22;14477;51.038;4.588;2023-04-24T13:41:53;21.00;99.90
26909;DHT22;14477;51.038;4.588;2023-04-24T13:44:20;20.90;99.90
26909;DHT22;14477;51.038;4.588;2023-04-24T13:46:47;20.70;99.90
26909;DHT22;14477;51.038;4.588;2023-04-24T13:49:14;20.50;99.90
26909;DHT22;14477;51.038;4.588;2023-04-24T13:51:41;20.50;99.90
26909;DHT22;14477;51.038;4.588;2023-04-24T13:54:07;20.40;99.90
26909;DHT22;14477;51.038;4.588;2023-04-24T13:56:33;20.40;99.90
26909;DHT22;14477;51.038;4.588;2023-04-24T13:58:58;20.40;99.90
26909;DHT22;14477;51.038;4.588;2023-04-24T14:01:24;20.30;99.90
26909;DHT22;14477;51.038;4.588;2023-04-24T14:03:51;20.40;99.90
26909;DHT22;14477;51.038;4.588;2023-04-24T14:06:18;20.50;99.90
26909;DHT22;14477;51.038;4.588;2023-04-24T14:08:44;20.70;99.90
26909;DHT22;14477;51.038;4.588;2023-04-24T14:11:10;20.90;99.90
26909;DHT22;14477;51.038;4.588;2023-04-24T14:13:37;21.10;99.90
26909;DHT22;14477;51.038;4.588;2023-04-24T14:16:03;21.30;99.90
26909;DHT22;14477;51.038;4.588;2023-04-24T14:18:29;21.40;99.90
26909;DHT22;14477;51.038;4.588;2023-04-24T14:20:55;21.50;99.90
26909;DHT22;14477;51.038;4.588;2023-04-24T14:23:24;21.70;99.90
26909;DHT22;14477;51.038;4.588;2023-04-24T14:25:50;21.70;99.90
26909;DHT22;14477;51.038;4.588;2023-04-24T14:28:21;21.80;99.90
26909;DHT22;14477;51.038;4.588;2023-04-24T14:30:47;21.90;99.90
26909;DHT22;14477;51.038;4.588;2023-04-24T14:33:13;22.00;99.90
26909;DHT22;14477;51.038;4.588;2023-04-24T14:35:40;22.10;99.90
26909;DHT22;14477;51.038;4.588;2023-04-24T14:38:07;22.10;99.90
26909;DHT22;14477;51.038;4.588;2023-04-24T14:40:33;22.00;99.90
26909;DHT22;14477;51.038;4.588;2023-04-24T14:42:59;21.80;99.30
26909;DHT22;14477;51.038;4.588;2023-04-24T14:45:25;21.70;99.30
26909;DHT22;14477;51.038;4.588;2023-04-24T14:47:52;21.50;99.10
26909;DHT22;14477;51.038;4.588;2023-04-24T14:50:18;21.30;99.20
26909;DHT22;14477;51.038;4.588;2023-04-24T14:52:43;21.10;99.70
26909;DHT22;14477;51.038;4.588;2023-04-24T14:55:09;21.00;99.90
26909;DHT22;14477;51.038;4.588;2023-04-24T14:57:35;20.90;99.90
26909;DHT22;14477;51.038;4.588;2023-04-24T15:00:03;20.80;99.90
26909;DHT22;14477;51.038;4.588;2023-04-24T15:02:32;20.80;99.90
26909;DHT22;14477;51.038;4.588;2023-04-24T15:04:58;20.70;99.90
26909;DHT22;14477;51.038;4.588;2023-04-24T15:07:24;20.60;99.90
26909;DHT22;14477;51.038;4.588;2023-04-24T15:09:50;20.60;99.50
26909;DHT22;14477;51.038;4.588;2023-04-24T15:12:16;20.40;98.80
26909;DHT22;14477;51.038;4.588;2023-04-24T15:14:42;20.20;98.50
26909;DHT22;14477;51.038;4.588;2023-04-24T15:17:08;20.00;98.40
26909;DHT22;14477;51.038;4.588;2023-04-24T15:19:34;19.80;98.40
26909;DHT22;14477;51.038;4.588;2023-04-24T15:21:59;19.60;98.30
26909;DHT22;14477;51.038;4.588;2023-04-24T15:24:26;19.40;98.60
26909;DHT22;14477;51.038;4.588;2023-04-24T15:26:52;19.20;98.60
26909;DHT22;14477;51.038;4.588;2023-04-24T15:29:18;19.10;98.70
26909;DHT22;14477;51.038;4.588;2023-04-24T15:31:44;18.90;98.70
26909;DHT22;14477;51.038;4.588;2023-04-24T15:34:09;18.80;98.70
26909;DHT22;14477;51.038;4.588;2023-04-24T15:36:35;18.70;98.30
26909;DHT22;14477;51.038;4.588;2023-04-24T15:39:02;18.60;98.50